Wetterdaten: Woche 20.02.23 - 26.02.23 (KW8)
Datum Zeit Temp. Aussen Temp. o. S. Temp +5cm Feuchte Auss Luftdruck Regen Sonnenschein Regendauer Solar Windben Empfang
20.02.2023 00:00 5,1 C 4,1 C 1,8 C 93 % 1027,2 hPa 0,0 l/m 0,00 h 0,00 h 0 W/m 8,1 km/h (2 Bft) 97,83 %
20.02.2023 01:00 5,0 C 4,1 C 1,8 C 94 % 1026,7 hPa 0,0 l/m 0,00 h 0,00 h 0 W/m 10,5 km/h (2 Bft) 95,65 %
20.02.2023 02:00 5,4 C 4,9 C 2,2 C 95 % 1025,9 hPa 0,0 l/m 0,00 h 0,00 h 0 W/m 14,7 km/h (3 Bft) 98,39 %
20.02.2023 03:00 5,8 C 5,0 C 2,7 C 94 % 1025,3 hPa 0,0 l/m 0,00 h 0,00 h 0 W/m 17,9 km/h (3 Bft) 95,44 %
20.02.2023 04:00 5,8 C 5,0 C 2,2 C 93 % 1024,8 hPa 0,0 l/m 0,00 h 0,00 h 0 W/m 16,2 km/h (3 Bft) 95,33 %
20.02.2023 05:00 5,6 C 4,9 C 2,2 C 93 % 1024,6 hPa 0,0 l/m 0,00 h 0,00 h 0 W/m 18,4 km/h (3 Bft) 98,20 %
20.02.2023 06:00 5,4 C 4,5 C 2,2 C 93 % 1024,5 hPa 0,0 l/m 0,00 h 0,00 h 0 W/m 14,0 km/h (3 Bft) 97,18 %
20.02.2023 07:00 5,4 C 5,0 C 2,2 C 94 % 1024,5 hPa 0,0 l/m 0,00 h 0,00 h 0 W/m 15,6 km/h (3 Bft) 93,85 %
20.02.2023 08:00 5,6 C 5,2 C 2,7 C 94 % 1024,7 hPa 0,0 l/m 0,00 h 0,00 h 26 W/m 18,6 km/h (3 Bft) 89,75 %
20.02.2023 09:00 6,2 C 5,9 C 3,3 C 92 % 1024,7 hPa 0,0 l/m 0,00 h 0,00 h 57 W/m 18,2 km/h (3 Bft) 91,31 %
20.02.2023 10:00 6,7 C 6,5 C 3,8 C 91 % 1024,7 hPa 0,0 l/m 0,00 h 0,00 h 100 W/m 19,2 km/h (3 Bft) 94,63 %
20.02.2023 11:00 7,2 C 7,2 C 4,4 C 90 % 1024,6 hPa 0,0 l/m 0,00 h 0,00 h 107 W/m 20,0 km/h (4 Bft) 96,83 %
20.02.2023 12:00 7,6 C 7,2 C 4,4 C 90 % 1024,2 hPa 0,0 l/m 0,00 h 0,00 h 98 W/m 22,0 km/h (4 Bft) 96,38 %
20.02.2023 13:00 7,6 C 7,2 C 4,4 C 90 % 1023,9 hPa 0,0 l/m 0,00 h 0,00 h 72 W/m 19,5 km/h (3 Bft) 97,66 %
20.02.2023 14:00 7,8 C 7,6 C 4,5 C 91 % 1022,9 hPa 0,0 l/m 0,00 h 0,00 h 87 W/m 22,5 km/h (4 Bft) 98,36 %
20.02.2023 15:00 7,9 C 7,4 C 4,4 C 91 % 1022,4 hPa 0,0 l/m 0,00 h 0,00 h 43 W/m 17,8 km/h (3 Bft) 95,30 %
20.02.2023 16:00 8,0 C 7,5 C 4,4 C 92 % 1022,3 hPa 0,0 l/m 0,00 h 0,00 h 21 W/m 15,3 km/h (3 Bft) 98,50 %
20.02.2023 17:00 8,2 C 7,8 C 4,7 C 91 % 1022,2 hPa 0,0 l/m 0,00 h 0,00 h 10 W/m 13,9 km/h (3 Bft) 96,47 %
20.02.2023 18:00 8,3 C 7,8 C 4,5 C 91 % 1022,3 hPa 0,0 l/m 0,00 h 0,00 h 0 W/m 12,8 km/h (3 Bft) 96,03 %
20.02.2023 19:00 8,3 C 7,8 C 4,7 C 91 % 1022,4 hPa 0,0 l/m 0,00 h 0,00 h 0 W/m 12,5 km/h (3 Bft) 98,08 %
20.02.2023 20:00 8,3 C 7,8 C 5,0 C 92 % 1022,2 hPa 0,0 l/m 0,00 h 0,00 h 0 W/m 14,0 km/h (3 Bft) 97,23 %
20.02.2023 21:00 8,4 C 7,8 C 5,0 C 92 % 1021,9 hPa 0,0 l/m 0,00 h 0,00 h 0 W/m 16,3 km/h (3 Bft) 94,61 %
20.02.2023 22:00 8,2 C 7,6 C 4,6 C 93 % 1021,7 hPa 0,0 l/m 0,00 h 0,00 h 0 W/m 15,2 km/h (3 Bft) 97,95 %
20.02.2023 23:00 8,0 C 7,2 C 4,4 C 94 % 1021,4 hPa 0,0 l/m 0,00 h 0,00 h 0 W/m 14,3 km/h (3 Bft) 97,62 %
21.02.2023 00:00 7,8 C 7,2 C 4,4 C 94 % 1021,4 hPa 0,0 l/m 0,00 h 0,00 h 0 W/m 14,1 km/h (3 Bft) 97,16 %
21.02.2023 01:00 7,6 C 6,9 C 4,4 C 95 % 1021,4 hPa 0,0 l/m 0,00 h 0,00 h 0 W/m 14,4 km/h (3 Bft) 95,62 %
21.02.2023 02:00 7,4 C 6,7 C 4,4 C 96 % 1021,2 hPa 0,0 l/m 0,00 h 0,00 h 0 W/m 9,4 km/h (2 Bft) 97,74 %
21.02.2023 03:00 7,3 C 6,7 C 4,4 C 96 % 1020,9 hPa 0,0 l/m 0,00 h 0,00 h 0 W/m 10,0 km/h (2 Bft) 97,13 %
21.02.2023 04:00 7,2 C 6,7 C 4,4 C 96 % 1020,6 hPa 0,0 l/m 0,00 h 0,00 h 0 W/m 10,4 km/h (2 Bft) 97,35 %
21.02.2023 05:00 7,2 C 6,7 C 4,1 C 96 % 1020,6 hPa 0,0 l/m 0,00 h 0,00 h 0 W/m 9,4 km/h (2 Bft) 98,38 %
21.02.2023 06:00 7,1 C 6,3 C 3,9 C 96 % 1020,7 hPa 0,0 l/m 0,00 h 0,00 h 0 W/m 6,8 km/h (2 Bft) 95,89 %
21.02.2023 07:00 6,8 C 6,1 C 3,9 C 97 % 1020,6 hPa 0,0 l/m 0,00 h 0,00 h 5 W/m 10,0 km/h (2 Bft) 96,78 %
21.02.2023 08:00 6,7 C 6,1 C 3,9 C 98 % 1020,8 hPa 0,0 l/m 0,00 h 0,00 h 15 W/m 8,2 km/h (2 Bft) 95,70 %
21.02.2023 09:00 6,7 C 6,5 C 4,1 C 98 % 1020,9 hPa 0,0 l/m 0,00 h 0,00 h 35 W/m 9,3 km/h (2 Bft) 96,25 %
21.02.2023 10:00 6,9 C 6,8 C 4,2 C 98 % 1020,7 hPa 0,0 l/m 0,00 h 0,00 h 65 W/m 8,8 km/h (2 Bft) 98,30 %
21.02.2023 11:00 7,3 C 7,7 C 5,0 C 98 % 1020,6 hPa 0,0 l/m 0,00 h 0,00 h 94 W/m 4,1 km/h (1 Bft) 97,85 %
21.02.2023 12:00 7,5 C 7,4 C 5,0 C 97 % 1020,3 hPa 0,0 l/m 0,00 h 0,00 h 76 W/m 0,0 km/h (0 Bft) 95,12 %
21.02.2023 13:00 7,7 C 7,7 C 5,0 C 96 % 1019,6 hPa 0,0 l/m 0,00 h 0,00 h 74 W/m 0,0 km/h (0 Bft) 99,01 %
21.02.2023 14:00 7,9 C 7,8 C 5,0 C 95 % 1019,2 hPa 0,0 l/m 0,00 h 0,00 h 59 W/m 0,0 km/h (0 Bft) 96,23 %
21.02.2023 15:00 7,9 C 7,5 C 5,0 C 95 % 1018,7 hPa 0,0 l/m 0,00 h 0,00 h 40 W/m 0,0 km/h (0 Bft) 97,72 %
21.02.2023 16:00 8,1 C 7,8 C 5,0 C 95 % 1018,3 hPa 0,0 l/m 0,00 h 0,00 h 49 W/m 0,0 km/h (0 Bft) 96,77 %
21.02.2023 17:00 8,1 C 7,5 C 5,0 C 94 % 1018,1 hPa 0,0 l/m 0,00 h 0,00 h 17 W/m 0,0 km/h (0 Bft) 96,91 %
21.02.2023 18:00 7,9 C 7,2 C 4,5 C 94 % 1018,0 hPa 0,0 l/m 0,00 h 0,00 h 0 W/m 0,0 km/h (0 Bft) 87,99 %
21.02.2023 19:00 7,8 C 6,8 C 4,4 C 95 % 1018,0 hPa 0,0 l/m 0,00 h 0,00 h 0 W/m 0,0 km/h (0 Bft) 95,66 %
21.02.2023 20:00 7,7 C 6,9 C 4,4 C 95 % 1017,8 hPa 0,0 l/m 0,00 h 0,00 h 0 W/m 0,0 km/h (0 Bft) 94,19 %
21.02.2023 21:00 7,7 C 7,0 C 4,4 C 95 % 1017,5 hPa 0,0 l/m 0,00 h 0,00 h 0 W/m 0,0 km/h (0 Bft) 98,13 %
21.02.2023 22:00 7,3 C 6,5 C 4,1 C 95 % 1017,2 hPa 0,0 l/m 0,00 h 0,00 h 0 W/m 0,0 km/h (0 Bft) 82,79 %
21.02.2023 23:00 6,9 C 6,1 C 3,9 C 95 % 1016,7 hPa 0,0 l/m 0,00 h 0,00 h 0 W/m 0,0 km/h (0 Bft) 89,46 %
22.02.2023 00:00 6,7 C 5,8 C 3,4 C 95 % 1016,0 hPa 0,0 l/m 0,00 h 0,00 h 0 W/m 0,4 km/h (0 Bft) 97,94 %
22.02.2023 01:00 6,5 C 5,6 C 3,3 C 96 % 1015,7 hPa 0,0 l/m 0,00 h 0,00 h 0 W/m 0,2 km/h (0 Bft) 92,13 %
22.02.2023 02:00 6,2 C 5,3 C 3,3 C 97 % 1015,2 hPa 0,0 l/m 0,00 h 0,00 h 0 W/m 0,0 km/h (0 Bft) 94,28 %
22.02.2023 03:00 6,0 C 5,0 C 3,0 C 97 % 1014,7 hPa 0,0 l/m 0,00 h 0,00 h 0 W/m 0,0 km/h (0 Bft) 97,86 %
22.02.2023 04:00 5,7 C 5,0 C 2,8 C 98 % 1014,4 hPa 0,0 l/m 0,00 h 0,00 h 0 W/m 0,5 km/h (0 Bft) 97,49 %
22.02.2023 05:00 5,3 C 4,4 C 2,8 C 98 % 1014,1 hPa 0,0 l/m 0,00 h 0,00 h 0 W/m 7,6 km/h (2 Bft) 96,15 %
22.02.2023 06:00 5,1 C 4,4 C 2,6 C 98 % 1013,6 hPa 0,0 l/m 0,00 h 0,00 h 0 W/m 8,0 km/h (2 Bft) 96,11 %
22.02.2023 07:00 4,9 C 4,4 C 2,2 C 98 % 1013,3 hPa 0,0 l/m 0,00 h 0,00 h 7 W/m 7,2 km/h (2 Bft) 96,75 %
22.02.2023 08:00 5,1 C 4,8 C 2,9 C 99 % 1013,1 hPa 0,0 l/m 0,00 h 0,00 h 46 W/m 8,5 km/h (2 Bft) 95,88 %
22.02.2023 09:00 5,8 C 6,6 C 4,0 C 99 % 1012,8 hPa 0,0 l/m 0,20 h 0,00 h 126 W/m 6,7 km/h (2 Bft) 96,84 %
22.02.2023 10:00 6,9 C 10,4 C 5,8 C 99 % 1012,7 hPa 0,0 l/m 1,00 h 0,00 h 211 W/m 8,8 km/h (2 Bft) 97,03 %
22.02.2023 11:00 9,1 C 14,7 C 9,5 C 98 % 1012,2 hPa 0,0 l/m 1,00 h 0,00 h 344 W/m 13,6 km/h (3 Bft) 96,66 %
22.02.2023 12:00 11,9 C 14,5 C 10,0 C 82 % 1011,9 hPa 0,0 l/m 0,60 h 0,00 h 271 W/m 11,8 km/h (2 Bft) 98,35 %
22.02.2023 13:00 13,8 C 17,0 C 10,0 C 74 % 1011,5 hPa 0,0 l/m 1,00 h 0,00 h 350 W/m 12,6 km/h (3 Bft) 95,15 %
22.02.2023 14:00 14,6 C 15,9 C 10,3 C 73 % 1011,2 hPa 0,0 l/m 1,00 h 0,00 h 280 W/m 10,6 km/h (2 Bft) 97,87 %
22.02.2023 15:00 14,6 C 14,7 C 10,1 C 72 % 1011,2 hPa 0,0 l/m 0,67 h 0,00 h 185 W/m 12,7 km/h (3 Bft) 96,67 %
22.02.2023 16:00 13,8 C 13,2 C 9,2 C 76 % 1011,3 hPa 0,0 l/m 0,00 h 0,00 h 59 W/m 9,8 km/h (2 Bft) 94,62 %
22.02.2023 17:00 12,7 C 11,9 C 8,2 C 80 % 1011,6 hPa 0,0 l/m 0,00 h 0,00 h 18 W/m 8,4 km/h (2 Bft) 99,29 %
22.02.2023 18:00 11,8 C 10,9 C 7,3 C 83 % 1012,0 hPa 0,0 l/m 0,00 h 0,03 h 0 W/m 6,7 km/h (2 Bft) 96,92 %
22.02.2023 19:00 11,1 C 10,0 C 6,1 C 88 % 1012,4 hPa 0,2 l/m 0,00 h 0,37 h 0 W/m 6,1 km/h (2 Bft) 94,61 %
22.02.2023 20:00 10,2 C 9,4 C 5,6 C 92 % 1012,5 hPa 0,0 l/m 0,00 h 0,03 h 0 W/m 4,0 km/h (1 Bft) 99,00 %
22.02.2023 21:00 9,7 C 8,9 C 5,6 C 94 % 1012,7 hPa 0,0 l/m 0,00 h 0,17 h 0 W/m 6,0 km/h (2 Bft) 96,73 %
22.02.2023 22:00 9,4 C 8,4 C 5,0 C 95 % 1012,8 hPa 0,4 l/m 0,00 h 0,90 h 0 W/m 1,1 km/h (1 Bft) 97,29 %
22.02.2023 23:00 9,2 C 8,3 C 5,0 C 96 % 1012,8 hPa 0,2 l/m 0,00 h 0,17 h 0 W/m 0,2 km/h (0 Bft) 95,91 %
23.02.2023 00:00 9,0 C 8,1 C 5,0 C 96 % 1012,8 hPa 0,4 l/m 0,00 h 0,70 h 0 W/m 0,1 km/h (0 Bft) 98,78 %
23.02.2023 01:00 8,9 C 7,8 C 5,0 C 97 % 1012,8 hPa 0,2 l/m 0,00 h 1,00 h 0 W/m 0,0 km/h (0 Bft) 96,30 %
23.02.2023 02:00 8,8 C 7,8 C 5,0 C 97 % 1012,7 hPa 0,2 l/m 0,00 h 0,63 h 0 W/m 0,3 km/h (0 Bft) 97,41 %
23.02.2023 03:00 8,7 C 7,8 C 5,0 C 98 % 1012,7 hPa 0,2 l/m 0,00 h 0,40 h 0 W/m 0,2 km/h (0 Bft) 97,23 %
23.02.2023 04:00 8,4 C 7,4 C 5,0 C 98 % 1012,7 hPa 0,4 l/m 0,00 h 1,00 h 0 W/m 0,2 km/h (0 Bft) 95,73 %
23.02.2023 05:00 8,2 C 7,2 C 5,0 C 98 % 1012,9 hPa 0,2 l/m 0,00 h 0,37 h 0 W/m 0,1 km/h (0 Bft) 98,32 %
23.02.2023 06:00 8,2 C 7,2 C 5,0 C 98 % 1013,1 hPa 0,2 l/m 0,00 h 0,40 h 0 W/m 0,4 km/h (0 Bft) 96,18 %
23.02.2023 07:00 8,2 C 7,2 C 5,0 C 98 % 1013,4 hPa 1,0 l/m 0,00 h 1,00 h 0 W/m 1,4 km/h (1 Bft) 97,01 %
23.02.2023 08:00 7,9 C 7,2 C 4,9 C 99 % 1014,0 hPa 0,2 l/m 0,00 h 0,53 h 21 W/m 7,9 km/h (2 Bft) 95,81 %
23.02.2023 09:00 7,8 C 7,7 C 5,0 C 99 % 1014,5 hPa 0,0 l/m 0,00 h 0,00 h 46 W/m 7,3 km/h (2 Bft) 97,58 %
23.02.2023 10:00 7,8 C 7,8 C 5,0 C 99 % 1014,9 hPa 0,0 l/m 0,00 h 0,00 h 47 W/m 6,2 km/h (2 Bft) 94,80 %
23.02.2023 11:00 7,9 C 7,8 C 5,0 C 99 % 1015,4 hPa 0,0 l/m 0,00 h 0,00 h 60 W/m 7,4 km/h (2 Bft) 96,36 %
23.02.2023 12:00 7,9 C 7,9 C 5,0 C 98 % 1015,5 hPa 0,0 l/m 0,00 h 0,17 h 75 W/m 10,1 km/h (2 Bft) 96,85 %
23.02.2023 13:00 8,2 C 8,4 C 5,1 C 97 % 1015,4 hPa 0,0 l/m 0,00 h 0,00 h 107 W/m 12,2 km/h (3 Bft) 98,31 %
23.02.2023 14:00 8,6 C 8,9 C 5,6 C 95 % 1015,4 hPa 0,0 l/m 0,00 h 0,00 h 89 W/m 12,2 km/h (3 Bft) 95,22 %
23.02.2023 15:00 9,1 C 9,0 C 5,6 C 92 % 1015,5 hPa 0,0 l/m 0,00 h 0,00 h 45 W/m 10,1 km/h (2 Bft) 97,94 %
23.02.2023 16:00 8,8 C 8,3 C 5,0 C 90 % 1015,7 hPa 0,0 l/m 0,00 h 0,00 h 18 W/m 5,0 km/h (1 Bft) 98,07 %
23.02.2023 17:00 8,8 C 8,0 C 5,0 C 91 % 1015,6 hPa 0,0 l/m 0,00 h 0,00 h 6 W/m 0,0 km/h (0 Bft) 95,38 %
23.02.2023 18:00 8,5 C 7,8 C 5,0 C 92 % 1015,8 hPa 0,0 l/m 0,00 h 0,00 h 0 W/m 0,0 km/h (0 Bft) 98,86 %
23.02.2023 19:00 8,0 C 7,2 C 4,5 C 92 % 1016,2 hPa 0,0 l/m 0,00 h 0,00 h 0 W/m 9,6 km/h (2 Bft) 97,94 %
23.02.2023 20:00 7,5 C 6,7 C 4,0 C 93 % 1016,1 hPa 0,0 l/m 0,00 h 0,00 h 0 W/m 3,2 km/h (1 Bft) 96,07 %
23.02.2023 21:00 7,2 C 6,2 C 3,9 C 94 % 1016,2 hPa 0,0 l/m 0,00 h 0,00 h 0 W/m 2,4 km/h (1 Bft) 98,20 %
23.02.2023 22:00 6,7 C 6,0 C 3,3 C 95 % 1016,3 hPa 0,2 l/m 0,00 h 0,13 h 0 W/m 11,3 km/h (2 Bft) 98,16 %
23.02.2023 23:00 5,9 C 5,3 C 2,8 C 96 % 1016,1 hPa 0,0 l/m 0,00 h 0,00 h 0 W/m 8,4 km/h (2 Bft) 95,58 %
24.02.2023 00:00 5,6 C 5,2 C 2,8 C 96 % 1016,0 hPa 0,0 l/m 0,00 h 0,00 h 0 W/m 11,1 km/h (2 Bft) 93,90 %
24.02.2023 01:00 5,1 C 4,4 C 2,2 C 95 % 1015,3 hPa 0,0 l/m 0,00 h 0,00 h 0 W/m 6,8 km/h (2 Bft) 98,07 %
24.02.2023 02:00 4,5 C 3,5 C 1,3 C 94 % 1014,8 hPa 0,0 l/m 0,00 h 0,00 h 0 W/m 6,4 km/h (2 Bft) 97,60 %
24.02.2023 03:00 4,1 C 3,3 C 1,1 C 95 % 1014,1 hPa 0,0 l/m 0,00 h 0,00 h 0 W/m 4,9 km/h (1 Bft) 96,07 %
24.02.2023 04:00 3,8 C 3,3 C 1,1 C 95 % 1013,4 hPa 0,0 l/m 0,00 h 0,00 h 0 W/m 1,9 km/h (1 Bft) 98,30 %
24.02.2023 05:00 3,7 C 3,3 C 1,1 C 95 % 1013,0 hPa 0,0 l/m 0,00 h 0,00 h 0 W/m 0,9 km/h (0 Bft) 98,43 %
24.02.2023 06:00 3,7 C 3,3 C 1,1 C 95 % 1012,5 hPa 0,0 l/m 0,00 h 0,00 h 0 W/m 0,0 km/h (0 Bft) 94,47 %
24.02.2023 07:00 3,7 C 3,3 C 1,1 C 94 % 1011,9 hPa 0,0 l/m 0,00 h 0,00 h 7 W/m 2,5 km/h (1 Bft) 98,32 %
24.02.2023 08:00 3,8 C 3,6 C 1,3 C 92 % 1011,4 hPa 0,0 l/m 0,00 h 0,00 h 38 W/m 6,1 km/h (2 Bft) 97,81 %
24.02.2023 09:00 4,2 C 4,2 C 1,7 C 89 % 1010,7 hPa 0,0 l/m 0,00 h 0,00 h 85 W/m 10,3 km/h (2 Bft) 92,53 %
24.02.2023 10:00 4,7 C 4,7 C 2,2 C 84 % 1009,9 hPa 0,0 l/m 0,00 h 0,00 h 108 W/m 12,4 km/h (3 Bft) 96,52 %
24.02.2023 11:00 5,0 C 5,0 C 2,0 C 82 % 1009,1 hPa 0,0 l/m 0,00 h 0,07 h 84 W/m 15,7 km/h (3 Bft) 97,49 %
24.02.2023 12:00 4,8 C 4,4 C 0,9 C 85 % 1008,2 hPa 0,0 l/m 0,00 h 0,93 h 79 W/m 16,9 km/h (3 Bft) 96,48 %
24.02.2023 13:00 4,6 C 4,4 C 0,6 C 90 % 1007,3 hPa 0,4 l/m 0,00 h 0,97 h 89 W/m 15,2 km/h (3 Bft) 96,92 %
24.02.2023 14:00 4,7 C 4,4 C 0,9 C 92 % 1006,4 hPa 0,2 l/m 0,00 h 1,00 h 74 W/m 15,5 km/h (3 Bft) 98,37 %
24.02.2023 15:00 4,9 C 4,4 C 1,1 C 93 % 1005,7 hPa 0,2 l/m 0,00 h 0,53 h 41 W/m 15,8 km/h (3 Bft) 96,26 %
24.02.2023 16:00 5,3 C 5,0 C 1,7 C 94 % 1005,1 hPa 0,0 l/m 0,00 h 0,00 h 61 W/m 15,9 km/h (3 Bft) 96,80 %
24.02.2023 17:00 5,6 C 5,0 C 1,8 C 94 % 1004,6 hPa 0,2 l/m 0,00 h 0,37 h 14 W/m 16,4 km/h (3 Bft) 98,57 %
24.02.2023 18:00 5,7 C 5,1 C 1,9 C 95 % 1004,9 hPa 0,0 l/m 0,00 h 0,00 h 0 W/m 10,4 km/h (2 Bft) 96,47 %
24.02.2023 19:00 5,5 C 4,8 C 1,8 C 94 % 1005,4 hPa 0,4 l/m 0,00 h 0,27 h 0 W/m 15,2 km/h (3 Bft) 96,66 %
24.02.2023 20:00 4,8 C 4,3 C 1,2 C 94 % 1005,8 hPa 0,0 l/m 0,00 h 0,13 h 0 W/m 18,1 km/h (3 Bft) 97,87 %
24.02.2023 21:00 4,6 C 3,9 C 1,1 C 94 % 1006,1 hPa 0,0 l/m 0,00 h 0,00 h 0 W/m 13,4 km/h (3 Bft) 97,24 %
24.02.2023 22:00 4,1 C 3,4 C 1,1 C 94 % 1006,4 hPa 0,0 l/m 0,00 h 0,00 h 0 W/m 11,9 km/h (2 Bft) 96,59 %
24.02.2023 23:00 3,9 C 3,3 C 1,1 C 94 % 1006,7 hPa 0,0 l/m 0,00 h 0,00 h 0 W/m 15,0 km/h (3 Bft) 95,63 %
25.02.2023 00:00 3,7 C 3,1 C 0,8 C 93 % 1007,1 hPa 0,0 l/m 0,00 h 0,00 h 0 W/m 11,8 km/h (2 Bft) 98,80 %
25.02.2023 01:00 3,4 C 2,8 C 0,6 C 93 % 1007,3 hPa 0,0 l/m 0,00 h 0,00 h 0 W/m 13,1 km/h (3 Bft) 95,41 %
25.02.2023 02:00 3,3 C 2,8 C 0,6 C 92 % 1007,3 hPa 0,0 l/m 0,00 h 0,00 h 0 W/m 12,4 km/h (3 Bft) 97,74 %
25.02.2023 03:00 3,3 C 2,8 C 0,6 C 92 % 1007,4 hPa 0,0 l/m 0,00 h 0,00 h 0 W/m 14,0 km/h (3 Bft) 98,16 %
25.02.2023 04:00 3,4 C 2,8 C 0,6 C 91 % 1007,5 hPa 0,0 l/m 0,00 h 0,00 h 0 W/m 14,1 km/h (3 Bft) 98,04 %
25.02.2023 05:00 3,4 C 2,8 C 0,6 C 91 % 1007,8 hPa 0,0 l/m 0,00 h 0,00 h 0 W/m 12,3 km/h (3 Bft) 95,02 %
25.02.2023 06:00 3,4 C 2,8 C 0,6 C 91 % 1007,9 hPa 0,0 l/m 0,00 h 0,00 h 0 W/m 12,3 km/h (3 Bft) 98,20 %
25.02.2023 07:00 3,4 C 2,8 C 0,6 C 91 % 1008,2 hPa 0,0 l/m 0,00 h 0,00 h 9 W/m 12,8 km/h (3 Bft) 97,39 %
25.02.2023 08:00 3,5 C 3,3 C 0,6 C 90 % 1008,6 hPa 0,0 l/m 0,03 h 0,00 h 46 W/m 13,6 km/h (3 Bft) 96,59 %
25.02.2023 09:00 4,0 C 4,1 C 1,1 C 90 % 1009,0 hPa 0,0 l/m 0,00 h 0,00 h 98 W/m 17,5 km/h (3 Bft) 96,37 %
25.02.2023 10:00 5,0 C 6,0 C 2,1 C 88 % 1009,4 hPa 0,0 l/m 0,30 h 0,00 h 170 W/m 20,8 km/h (4 Bft) 98,22 %
25.02.2023 11:00 5,1 C 5,7 C 2,1 C 89 % 1010,1 hPa 0,0 l/m 0,13 h 0,37 h 159 W/m 19,0 km/h (3 Bft) 96,87 %
25.02.2023 12:00 5,7 C 7,5 C 2,9 C 82 % 1010,5 hPa 0,0 l/m 0,40 h 0,00 h 272 W/m 20,4 km/h (4 Bft) 96,48 %
25.02.2023 13:00 7,5 C 12,4 C 3,8 C 72 % 1010,5 hPa 0,0 l/m 0,67 h 0,00 h 401 W/m 22,0 km/h (4 Bft) 98,71 %
25.02.2023 14:00 7,3 C 9,3 C 3,1 C 64 % 1010,9 hPa 0,0 l/m 0,43 h 0,00 h 278 W/m 25,1 km/h (4 Bft) 94,51 %
25.02.2023 15:00 6,8 C 8,6 C 2,4 C 57 % 1011,5 hPa 0,0 l/m 0,90 h 0,00 h 324 W/m 25,8 km/h (4 Bft) 96,82 %
25.02.2023 16:00 6,1 C 5,9 C 1,4 C 57 % 1012,1 hPa 0,0 l/m 0,60 h 0,00 h 147 W/m 23,8 km/h (4 Bft) 98,04 %
25.02.2023 17:00 4,9 C 4,1 C 0,4 C 58 % 1013,0 hPa 0,0 l/m 0,00 h 0,00 h 22 W/m 18,2 km/h (3 Bft) 96,09 %
25.02.2023 18:00 3,9 C 2,9 C -0,6 C 62 % 1014,0 hPa 0,0 l/m 0,00 h 0,00 h 6 W/m 17,1 km/h (3 Bft) 97,95 %
25.02.2023 19:00 3,0 C 2,1 C -1,5 C 64 % 1014,8 hPa 0,0 l/m 0,00 h 0,00 h 0 W/m 14,6 km/h (3 Bft) 97,21 %
25.02.2023 20:00 2,3 C 1,2 C -2,0 C 69 % 1015,3 hPa 0,0 l/m 0,00 h 0,00 h 0 W/m 11,2 km/h (2 Bft) 97,37 %
25.02.2023 21:00 1,5 C 0,5 C -2,8 C 74 % 1015,9 hPa 0,0 l/m 0,00 h 0,00 h 0 W/m 10,1 km/h (2 Bft) 96,80 %
25.02.2023 22:00 1,2 C 0,3 C -3,0 C 77 % 1016,5 hPa 0,0 l/m 0,00 h 0,00 h 0 W/m 11,2 km/h (2 Bft) 99,01 %
25.02.2023 23:00 0,9 C -0,0 C -3,3 C 80 % 1016,9 hPa 0,0 l/m 0,00 h 0,00 h 0 W/m 11,5 km/h (2 Bft) 96,00 %
26.02.2023 00:00 0,4 C -1,0 C -4,0 C 82 % 1017,2 hPa 0,0 l/m 0,00 h 0,00 h 0 W/m 6,5 km/h (2 Bft) 94,51 %
26.02.2023 01:00 -0,1 C -0,8 C -4,0 C 85 % 1017,7 hPa 0,0 l/m 0,00 h 0,00 h 0 W/m 7,1 km/h (2 Bft) 97,84 %
26.02.2023 02:00 0,2 C -0,7 C -3,8 C 87 % 1018,1 hPa 0,0 l/m 0,00 h 0,00 h 0 W/m 8,8 km/h (2 Bft) 95,92 %
26.02.2023 03:00 -0,2 C -1,2 C -4,3 C 87 % 1018,6 hPa 0,0 l/m 0,00 h 0,00 h 0 W/m 9,0 km/h (2 Bft) 95,44 %
26.02.2023 04:00 -0,7 C -2,0 C -4,8 C 87 % 1019,3 hPa 0,0 l/m 0,00 h 0,00 h 0 W/m 7,4 km/h (2 Bft) 98,79 %
26.02.2023 05:00 -1,2 C -2,2 C -5,1 C 89 % 1019,9 hPa 0,0 l/m 0,00 h 0,00 h 0 W/m 9,6 km/h (2 Bft) 97,25 %
26.02.2023 06:00 -1,4 C -2,2 C -5,0 C 89 % 1020,6 hPa 0,0 l/m 0,00 h 0,00 h 0 W/m 10,1 km/h (2 Bft) 95,54 %
26.02.2023 07:00 -1,6 C -2,4 C -5,4 C 88 % 1021,4 hPa 0,0 l/m 0,00 h 0,00 h 10 W/m 9,2 km/h (2 Bft) 97,79 %
26.02.2023 08:00 -1,3 C -1,6 C -4,9 C 87 % 1022,3 hPa 0,0 l/m 0,17 h 0,00 h 52 W/m 12,4 km/h (3 Bft) 96,42 %
26.02.2023 09:00 0,4 C 3,7 C -3,5 C 82 % 1023,1 hPa 0,0 l/m 0,77 h 0,00 h 182 W/m 15,7 km/h (3 Bft) 95,50 %
26.02.2023 10:00 2,4 C 8,1 C -1,6 C 73 % 1023,9 hPa 0,0 l/m 0,77 h 0,00 h 299 W/m 19,2 km/h (3 Bft) 99,00 %
26.02.2023 11:00 4,2 C 12,3 C 2,0 C 66 % 1024,5 hPa 0,0 l/m 0,90 h 0,00 h 509 W/m 20,9 km/h (4 Bft) 97,98 %
26.02.2023 12:00 4,7 C 8,8 C 1,5 C 62 % 1024,8 hPa 0,0 l/m 0,50 h 0,00 h 298 W/m 19,5 km/h (3 Bft) 97,11 %
26.02.2023 13:00 5,4 C 12,8 C 1,0 C 57 % 1024,8 hPa 0,0 l/m 0,93 h 0,00 h 547 W/m 21,8 km/h (4 Bft) 95,09 %
26.02.2023 14:00 5,4 C 8,5 C 0,8 C 55 % 1024,7 hPa 0,0 l/m 0,87 h 0,00 h 444 W/m 22,2 km/h (4 Bft) 96,80 %
26.02.2023 15:00 5,3 C 7,7 C 0,6 C 55 % 1024,7 hPa 0,0 l/m 1,00 h 0,00 h 370 W/m 22,6 km/h (4 Bft) 97,51 %
26.02.2023 16:00 4,5 C 4,3 C -0,4 C 57 % 1024,9 hPa 0,0 l/m 0,63 h 0,00 h 162 W/m 17,3 km/h (3 Bft) 95,18 %
26.02.2023 17:00 3,7 C 3,0 C -0,8 C 60 % 1025,2 hPa 0,0 l/m 0,00 h 0,00 h 21 W/m 17,3 km/h (3 Bft) 98,77 %
26.02.2023 18:00 2,9 C 1,7 C -1,9 C 63 % 1025,9 hPa 0,0 l/m 0,00 h 0,00 h 6 W/m 9,7 km/h (2 Bft) 96,50 %
26.02.2023 19:00 1,9 C 0,6 C -2,9 C 67 % 1026,3 hPa 0,0 l/m 0,00 h 0,00 h 0 W/m 5,4 km/h (1 Bft) 95,79 %
26.02.2023 20:00 1,6 C 0,7 C -2,6 C 71 % 1026,6 hPa 0,0 l/m 0,00 h 0,00 h 0 W/m 4,9 km/h (1 Bft) 97,21 %
26.02.2023 21:00 2,0 C 1,2 C -2,2 C 73 % 1027,3 hPa 0,0 l/m 0,00 h 0,00 h 0 W/m 3,1 km/h (1 Bft) 96,71 %
26.02.2023 22:00 2,1 C 1,4 C -2,3 C 75 % 1027,6 hPa 0,0 l/m 0,00 h 0,00 h 0 W/m 0,2 km/h (0 Bft) 97,57 %
26.02.2023 23:00 1,1 C -0,8 C -4,0 C 76 % 1027,8 hPa 0,0 l/m 0,00 h 0,00 h 0 W/m 0,0 km/h (0 Bft) 96,88 %
Min-Datum _ 26.02.23 26.02.23 26.02.23 26.02.23 24.02.23 - - - - 21.02.23 26.02.23
_ Min-Zeit 07:30 07:20 05:42 15:12 17:30 - - - - 08:16 00:02
Minimum _ -1,7 C -2,8 C -5,6 C 53 % 1004,3 hPa - - - - 0,0 km/h (0 Bft) 15,38 %
Max-Datum _ 22.02.23 22.02.23 22.02.23 22.02.23 26.02.23 23.02.23 26.02.23 22.02.23 25.02.23 20.02.23 20.02.23
_ Max-Zeit 14:54 13:12 11:26 08:06 23:54 07:00 09:35 22:05 12:56 12:54 00:24
Maximum _ 14,9 C 18,3 C 11,1 C 99 % 1028,0 hPa 1,0 l/m 0,08 h 0,08 h 698 W/m 45,1 km/h
S (6 Bft)
100,00 %
Durchschnitt _ 6,0 C 5,8 C 2,6 C 89 % 1016,3 hPa #5,4 l/m #15:28 h #12:42 h 118 W/m 10,1 km/h (2 Bft) 96,59 %
© 2023 W. Hausmann